createdAt,value
2023-03-21T00:01:27.113Z,17.08
2023-03-21T00:03:58.616Z,19.42
2023-03-21T00:06:30.081Z,17.80
2023-03-21T00:09:01.487Z,16.40
2023-03-21T00:11:32.962Z,18.23
2023-03-21T00:14:04.727Z,18.48
2023-03-21T00:16:40.575Z,18.88
2023-03-21T00:19:12.402Z,19.20
2023-03-21T00:22:03.281Z,19.77
2023-03-21T00:24:35.835Z,18.38
2023-03-21T00:29:58.794Z,19.00
2023-03-21T00:32:30.286Z,22.85
2023-03-21T00:35:29.672Z,20.60
2023-03-21T00:37:53.194Z,22.57
2023-03-21T00:40:29.424Z,21.75
2023-03-21T00:43:04.323Z,20.20
2023-03-21T00:45:35.966Z,21.35
2023-03-21T00:48:08.477Z,18.80
2023-03-21T00:50:40.891Z,20.75
2023-03-21T00:53:13.202Z,17.95
2023-03-21T00:55:44.910Z,19.92
2023-03-21T00:58:16.876Z,17.80
2023-03-21T01:00:48.342Z,21.13
2023-03-21T01:03:24.829Z,21.80
2023-03-21T01:05:56.862Z,19.30
2023-03-21T01:08:35.215Z,16.88
2023-03-21T01:11:16.810Z,20.90
2023-03-21T01:13:54.698Z,19.43
2023-03-21T01:16:29.543Z,18.10
2023-03-21T01:19:03.397Z,17.67
2023-03-21T01:21:37.036Z,17.52
2023-03-21T01:24:09.180Z,15.48
2023-03-21T01:26:40.642Z,16.33
2023-03-21T01:29:12.102Z,15.23
2023-03-21T01:31:43.697Z,17.05
2023-03-21T01:34:15.245Z,17.83
2023-03-21T01:36:46.729Z,16.33
2023-03-21T01:39:18.184Z,15.35
2023-03-21T01:41:49.703Z,16.58
2023-03-21T01:44:21.135Z,17.98
2023-03-21T01:47:09.260Z,16.35
2023-03-21T01:49:47.191Z,18.45
2023-03-21T01:52:35.880Z,17.40
2023-03-21T01:55:11.716Z,17.05
2023-03-21T01:58:04.282Z,15.90
2023-03-21T02:00:37.603Z,15.03
2023-03-21T02:03:15.228Z,15.93
2023-03-21T02:05:53.779Z,16.73
2023-03-21T02:08:36.823Z,15.40
2023-03-21T02:11:10.474Z,15.38
2023-03-21T02:13:41.901Z,16.42
2023-03-21T02:16:37.964Z,17.98
2023-03-21T02:19:17.698Z,18.55
2023-03-21T02:22:19.821Z,17.77
2023-03-21T02:25:21.276Z,16.35
2023-03-21T02:28:04.567Z,17.92
2023-03-21T02:30:51.296Z,19.70
2023-03-21T02:33:48.268Z,17.90
2023-03-21T02:36:53.774Z,19.33
2023-03-21T02:39:31.637Z,18.48
2023-03-21T02:42:16.043Z,20.70
2023-03-21T02:45:11.133Z,16.65
2023-03-21T02:47:56.214Z,19.60
2023-03-21T02:50:34.620Z,17.80
2023-03-21T02:53:10.281Z,16.05
2023-03-21T02:55:43.637Z,18.60
2023-03-21T02:58:18.980Z,21.42
2023-03-21T03:00:52.563Z,21.98
2023-03-21T03:03:33.566Z,19.42
2023-03-21T03:06:18.561Z,16.23
2023-03-21T03:09:01.931Z,20.40
2023-03-21T03:11:37.828Z,20.95
2023-03-21T03:14:53.014Z,16.58
2023-03-21T03:17:47.499Z,18.23
2023-03-21T03:20:24.876Z,19.40
2023-03-21T03:23:08.363Z,21.23
2023-03-21T03:25:45.238Z,21.83
2023-03-21T03:28:23.263Z,21.80
2023-03-21T03:31:08.773Z,21.67
2023-03-21T03:33:46.094Z,17.38
2023-03-21T03:36:33.661Z,19.75
2023-03-21T03:39:11.063Z,18.00
2023-03-21T03:42:21.766Z,18.85
2023-03-21T03:44:58.536Z,18.42
2023-03-21T03:47:47.746Z,17.40
2023-03-21T03:50:33.943Z,18.58
2023-03-21T03:53:21.799Z,19.75
2023-03-21T03:55:56.210Z,16.95
2023-03-21T03:58:42.983Z,19.63
2023-03-21T04:01:16.573Z,18.10
2023-03-21T04:03:51.709Z,19.50
2023-03-21T04:06:27.964Z,18.65
2023-03-21T04:09:01.661Z,18.15
2023-03-21T04:11:34.938Z,19.95
2023-03-21T04:14:06.335Z,19.85
2023-03-21T04:16:37.794Z,18.30
2023-03-21T04:19:09.222Z,22.83
2023-03-21T04:21:40.673Z,19.35
2023-03-21T04:24:12.335Z,18.92
2023-03-21T04:26:43.922Z,17.38
2023-03-21T04:29:15.347Z,19.83
2023-03-21T04:31:46.828Z,19.50
2023-03-21T04:34:18.281Z,20.98
2023-03-21T04:36:50.525Z,21.40
2023-03-21T04:39:22.087Z,19.33
2023-03-21T04:41:53.481Z,19.73
2023-03-21T04:44:24.899Z,18.48
2023-03-21T04:46:56.413Z,18.38
2023-03-21T04:49:27.911Z,17.95
2023-03-21T04:51:59.482Z,17.33
2023-03-21T04:54:31.153Z,17.15
2023-03-21T04:57:02.640Z,14.03
2023-03-21T04:59:34.970Z,16.38
2023-03-21T05:02:06.396Z,17.15
2023-03-21T05:04:38.437Z,19.15
2023-03-21T05:07:10.174Z,16.27
2023-03-21T05:09:41.678Z,19.23
2023-03-21T05:12:13.084Z,20.30
2023-03-21T05:14:44.503Z,16.73
2023-03-21T05:17:15.946Z,18.63
2023-03-21T05:19:47.429Z,20.48
2023-03-21T05:22:19.878Z,20.80
2023-03-21T05:24:51.462Z,17.48
2023-03-21T05:27:23.293Z,17.75
2023-03-21T05:29:54.762Z,18.20
2023-03-21T05:32:26.276Z,20.73
2023-03-21T05:34:57.732Z,17.47
2023-03-21T05:37:29.517Z,20.98
2023-03-21T05:40:01.018Z,17.13
2023-03-21T05:42:32.604Z,18.45
2023-03-21T05:45:04.571Z,21.15
2023-03-21T05:47:36.000Z,21.55
2023-03-21T05:50:08.042Z,17.77
2023-03-21T05:52:40.289Z,19.08
2023-03-21T05:55:11.872Z,16.00
2023-03-21T05:57:43.275Z,13.73
2023-03-21T06:00:15.460Z,20.27
2023-03-21T06:02:46.936Z,15.60
2023-03-21T06:05:18.332Z,18.92
2023-03-21T06:07:49.764Z,17.10
2023-03-21T06:10:21.179Z,18.92
2023-03-21T06:12:52.624Z,19.27
2023-03-21T06:15:24.239Z,18.10
2023-03-21T06:17:55.692Z,15.75
2023-03-21T06:20:27.222Z,17.98
2023-03-21T06:22:58.980Z,17.45
2023-03-21T06:25:30.446Z,17.75
2023-03-21T06:28:01.934Z,19.90
2023-03-21T06:30:33.457Z,15.43
2023-03-21T06:33:04.853Z,19.47
2023-03-21T06:35:36.635Z,17.80
2023-03-21T06:38:08.241Z,19.83
2023-03-21T06:40:39.700Z,15.75
2023-03-21T06:43:11.146Z,20.23
2023-03-21T06:45:43.232Z,20.15
2023-03-21T06:48:14.915Z,18.83
2023-03-21T06:50:51.260Z,18.70
2023-03-21T06:53:24.404Z,21.55
2023-03-21T06:55:56.845Z,16.63
2023-03-21T06:58:28.325Z,16.77
2023-03-21T07:01:01.136Z,17.25
2023-03-21T07:03:33.250Z,18.00
2023-03-21T07:06:09.745Z,17.58
2023-03-21T07:08:41.527Z,18.83
2023-03-21T07:11:12.915Z,19.20
2023-03-21T07:13:44.432Z,18.33
2023-03-21T07:16:17.739Z,15.32
2023-03-21T07:18:49.159Z,16.95
2023-03-21T07:21:20.676Z,18.67
2023-03-21T07:23:52.146Z,13.90
2023-03-21T07:26:23.576Z,12.48
2023-03-21T07:28:55.037Z,19.73
2023-03-21T07:31:26.531Z,18.30
2023-03-21T07:33:58.025Z,19.00
2023-03-21T07:36:29.440Z,21.15
2023-03-21T07:39:00.868Z,18.27
2023-03-21T07:41:32.277Z,17.88
2023-03-21T07:44:03.751Z,16.65
2023-03-21T07:46:35.288Z,14.73
2023-03-21T07:49:06.743Z,13.43
2023-03-21T07:51:38.193Z,15.35
2023-03-21T07:54:09.654Z,13.55
2023-03-21T07:56:41.097Z,16.38
2023-03-21T07:59:12.505Z,11.98
2023-03-21T08:01:43.991Z,15.93
2023-03-21T08:04:15.386Z,14.63
2023-03-21T08:06:46.866Z,13.65
2023-03-21T08:09:18.380Z,16.25
2023-03-21T08:11:49.834Z,15.52
2023-03-21T08:14:21.269Z,14.38
2023-03-21T08:16:52.779Z,15.23
2023-03-21T08:19:24.233Z,14.82
2023-03-21T08:21:55.649Z,15.83
2023-03-21T08:24:27.928Z,14.90
2023-03-21T08:27:00.023Z,13.15
2023-03-21T08:29:31.465Z,13.93
2023-03-21T08:32:02.938Z,14.80
2023-03-21T08:34:34.493Z,15.23
2023-03-21T08:37:05.948Z,13.10
2023-03-21T08:39:37.434Z,13.98
2023-03-21T08:42:08.858Z,11.75
2023-03-21T08:44:40.357Z,14.27
2023-03-21T08:47:11.867Z,14.18
2023-03-21T08:49:43.273Z,16.83
2023-03-21T08:52:14.687Z,16.85
2023-03-21T08:54:46.131Z,13.20
2023-03-21T08:57:17.575Z,13.45
2023-03-21T08:59:49.029Z,13.38
2023-03-21T09:02:20.463Z,16.83
2023-03-21T09:04:51.875Z,15.75
2023-03-21T09:07:23.363Z,18.35
2023-03-21T09:10:15.108Z,17.38
2023-03-21T09:12:46.287Z,15.40
2023-03-21T09:15:17.788Z,15.50
2023-03-21T09:17:49.464Z,16.33
2023-03-21T09:20:22.876Z,13.60
2023-03-21T09:22:54.374Z,18.52
2023-03-21T09:25:26.234Z,16.20
2023-03-21T09:27:57.694Z,17.77
2023-03-21T09:30:29.113Z,12.93
2023-03-21T09:33:04.940Z,14.48
2023-03-21T09:35:36.656Z,16.53
2023-03-21T09:38:08.260Z,18.77
2023-03-21T09:41:07.642Z,15.15
2023-03-21T09:44:12.152Z,18.83
2023-03-21T09:46:43.641Z,15.87
2023-03-21T09:49:25.785Z,16.48
2023-03-21T09:51:59.731Z,16.98
2023-03-21T09:54:38.558Z,17.33
2023-03-21T09:57:19.007Z,18.30
2023-03-21T09:59:52.624Z,15.38
2023-03-21T10:02:38.807Z,20.15
2023-03-21T10:05:17.020Z,17.17
2023-03-21T10:07:58.244Z,16.85
2023-03-21T10:10:34.157Z,16.33
2023-03-21T10:13:17.088Z,18.23
2023-03-21T10:15:49.120Z,19.70
2023-03-21T10:18:27.379Z,15.55
2023-03-21T10:20:59.356Z,20.17
2023-03-21T10:23:31.106Z,18.08
2023-03-21T10:26:06.366Z,18.05
2023-03-21T10:28:52.409Z,15.70
2023-03-21T10:31:26.415Z,18.63
2023-03-21T10:34:02.961Z,15.68
2023-03-21T10:36:34.957Z,20.70
2023-03-21T10:39:16.142Z,16.50
2023-03-21T10:41:47.605Z,19.23
2023-03-21T10:44:19.957Z,18.77
2023-03-21T10:47:03.046Z,16.63
2023-03-21T10:49:56.309Z,16.05
2023-03-21T10:52:32.114Z,15.70
2023-03-21T10:55:08.949Z,17.88
2023-03-21T10:57:40.727Z,16.92
2023-03-21T11:00:20.027Z,15.35
2023-03-21T11:02:53.346Z,17.95
2023-03-21T11:05:39.281Z,16.55
2023-03-21T11:08:14.553Z,15.27
2023-03-21T11:10:59.674Z,15.93
2023-03-21T11:13:41.840Z,16.90
2023-03-21T11:16:25.313Z,15.88
2023-03-21T11:19:01.417Z,16.88
2023-03-21T11:21:37.412Z,12.70
2023-03-21T11:24:18.423Z,13.13
2023-03-21T11:26:50.354Z,17.95
2023-03-21T11:29:32.749Z,13.43
2023-03-21T11:32:26.078Z,14.35
2023-03-21T11:35:05.216Z,14.85
2023-03-21T11:37:36.615Z,13.98
2023-03-21T11:40:24.976Z,13.68
2023-03-21T11:43:17.579Z,11.90
2023-03-21T11:46:04.330Z,13.52
2023-03-21T11:48:44.678Z,13.95
2023-03-21T11:51:31.492Z,11.98
2023-03-21T11:54:30.625Z,12.02
2023-03-21T11:57:25.081Z,12.18
2023-03-21T12:00:06.819Z,12.47
2023-03-21T12:02:50.657Z,11.30
2023-03-21T12:05:45.694Z,11.23
2023-03-21T12:08:38.816Z,12.88
2023-03-21T12:11:24.917Z,9.82
2023-03-21T12:14:18.998Z,11.00
2023-03-21T12:17:10.074Z,11.75
2023-03-21T12:19:44.517Z,10.52
2023-03-21T12:22:40.160Z,10.65
2023-03-21T12:25:18.996Z,10.70
2023-03-21T12:28:02.905Z,9.88
2023-03-21T12:30:54.201Z,12.67
2023-03-21T12:33:41.967Z,10.98
2023-03-21T12:36:32.206Z,12.02
2023-03-21T12:39:32.184Z,10.03
2023-03-21T12:42:24.754Z,11.60
2023-03-21T12:45:15.277Z,15.05
2023-03-21T12:47:53.157Z,11.98
2023-03-21T12:50:37.696Z,12.23
2023-03-21T12:53:24.412Z,9.38
2023-03-21T12:56:01.660Z,12.25
2023-03-21T12:58:52.388Z,7.80
2023-03-21T13:01:25.309Z,9.75
2023-03-21T13:04:17.469Z,10.98
2023-03-21T13:06:53.296Z,10.02
2023-03-21T13:09:38.513Z,9.05
2023-03-21T13:12:48.824Z,9.57
2023-03-21T13:15:57.678Z,9.95
2023-03-21T13:18:29.108Z,9.95
2023-03-21T13:21:09.537Z,9.98
2023-03-21T13:23:41.170Z,10.38
2023-03-21T13:26:12.660Z,11.05
2023-03-21T13:28:44.141Z,10.10
2023-03-21T13:31:45.367Z,13.98
2023-03-21T13:34:24.117Z,8.98
2023-03-21T13:36:58.155Z,10.13
2023-03-21T13:39:29.867Z,13.18
2023-03-21T13:42:04.818Z,11.20
2023-03-21T13:44:43.603Z,9.07
2023-03-21T13:47:35.371Z,8.05
2023-03-21T13:50:23.340Z,11.40
2023-03-21T13:53:13.270Z,11.73
2023-03-21T13:55:59.048Z,9.93
2023-03-21T13:58:49.858Z,8.80
2023-03-21T14:01:28.073Z,9.90
2023-03-21T14:04:20.141Z,10.27
2023-03-21T14:06:59.823Z,11.95
2023-03-21T14:09:31.228Z,10.45
2023-03-21T14:12:07.865Z,8.88
2023-03-21T14:14:44.047Z,10.63
2023-03-21T14:17:27.340Z,10.00
2023-03-21T14:20:21.074Z,10.63
2023-03-21T14:22:52.719Z,8.30
2023-03-21T14:25:37.219Z,10.43
2023-03-21T14:28:19.917Z,9.43
2023-03-21T14:30:54.392Z,10.37
2023-03-21T14:33:38.038Z,8.60
2023-03-21T14:36:43.155Z,7.63
2023-03-21T14:39:23.041Z,8.30
2023-03-21T14:41:57.884Z,6.30
2023-03-21T14:44:58.633Z,6.85
2023-03-21T14:47:30.445Z,6.32
2023-03-21T14:50:01.961Z,6.97
2023-03-21T14:52:34.797Z,6.43
2023-03-21T14:55:15.733Z,6.95
2023-03-21T14:57:48.661Z,8.07
2023-03-21T15:00:27.032Z,6.80
2023-03-21T15:02:59.754Z,10.18
2023-03-21T15:05:33.497Z,5.78
2023-03-21T15:08:14.392Z,6.53
2023-03-21T15:11:06.969Z,7.00
2023-03-21T15:13:49.266Z,5.65
2023-03-21T15:16:21.727Z,5.00
2023-03-21T15:18:53.416Z,6.03
2023-03-21T15:21:40.784Z,5.07
2023-03-21T15:24:15.043Z,8.10
2023-03-21T15:26:48.639Z,6.10
2023-03-21T15:29:20.149Z,5.45
2023-03-21T15:31:51.652Z,4.17
2023-03-21T15:34:27.268Z,4.15
2023-03-21T15:37:06.145Z,6.57
2023-03-21T15:39:37.620Z,6.18
2023-03-21T15:42:27.799Z,5.70
2023-03-21T15:45:02.779Z,3.78
2023-03-21T15:47:41.515Z,6.25
2023-03-21T15:50:33.942Z,5.50
2023-03-21T15:53:11.388Z,5.22
2023-03-21T15:55:51.717Z,5.38
2023-03-21T15:58:28.568Z,5.35
2023-03-21T16:01:05.738Z,5.18
2023-03-21T16:03:41.710Z,7.75
2023-03-21T16:06:13.094Z,5.60
2023-03-21T16:08:48.725Z,7.03
2023-03-21T16:11:25.218Z,6.13
2023-03-21T16:13:56.877Z,6.75
2023-03-21T16:16:29.972Z,8.80
2023-03-21T16:19:02.583Z,8.38
2023-03-21T16:21:34.637Z,10.83
2023-03-21T16:24:06.556Z,8.80
2023-03-21T16:26:42.817Z,9.63
2023-03-21T16:29:15.597Z,11.87
2023-03-21T16:31:48.784Z,11.23
2023-03-21T16:34:20.345Z,6.83
2023-03-21T16:36:51.760Z,10.30
2023-03-21T16:39:25.419Z,8.55
2023-03-21T16:41:56.990Z,7.82
2023-03-21T16:44:28.485Z,8.23
2023-03-21T16:47:02.228Z,9.07
2023-03-21T16:49:33.950Z,5.03
2023-03-21T16:52:05.527Z,9.48
2023-03-21T16:54:37.355Z,6.75
2023-03-21T16:57:22.641Z,6.47
2023-03-21T16:59:55.030Z,5.63
2023-03-21T17:02:26.497Z,6.35
2023-03-21T17:04:57.952Z,5.60
2023-03-21T17:07:30.024Z,5.60
2023-03-21T17:10:01.463Z,5.55
2023-03-21T17:12:32.907Z,4.95
2023-03-21T17:15:04.653Z,6.90
2023-03-21T17:17:36.870Z,5.97
2023-03-21T17:20:18.778Z,7.22
2023-03-21T17:22:50.345Z,7.78
2023-03-21T17:25:21.795Z,8.60
2023-03-21T17:27:53.646Z,7.22
2023-03-21T17:30:28.554Z,8.18
2023-03-21T17:33:00.925Z,6.75
2023-03-21T17:35:32.415Z,5.93
2023-03-21T17:38:04.945Z,8.57
2023-03-21T17:40:36.602Z,8.07
2023-03-21T17:43:16.917Z,8.13
2023-03-21T17:45:48.396Z,8.85
2023-03-21T17:48:19.839Z,14.52
2023-03-21T17:50:51.287Z,12.45
2023-03-21T17:53:22.816Z,12.77
2023-03-21T17:55:54.276Z,14.40
2023-03-21T17:58:25.757Z,11.95
2023-03-21T18:00:57.322Z,13.63
2023-03-21T18:03:28.830Z,15.77
2023-03-21T18:06:00.348Z,15.20
2023-03-21T18:08:31.951Z,13.52
2023-03-21T18:11:03.412Z,15.18
2023-03-21T18:13:42.314Z,13.82
2023-03-21T18:16:17.927Z,13.18
2023-03-21T18:18:50.412Z,19.23
2023-03-21T18:21:22.800Z,16.45
2023-03-21T18:23:54.547Z,16.08
2023-03-21T18:26:26.069Z,14.95
2023-03-21T18:29:53.515Z,13.13
2023-03-21T18:32:04.403Z,14.90
2023-03-21T18:34:38.762Z,16.13
2023-03-21T18:37:13.140Z,16.30
2023-03-21T18:39:45.349Z,15.73
2023-03-21T18:42:18.850Z,15.43
2023-03-21T18:44:54.606Z,16.85
2023-03-21T18:47:26.188Z,18.73
2023-03-21T18:50:13.211Z,17.90
2023-03-21T18:52:46.556Z,17.48
2023-03-21T18:55:18.636Z,17.20
2023-03-21T18:57:50.832Z,18.00
2023-03-21T19:00:22.441Z,16.23
2023-03-21T19:03:06.402Z,14.05
2023-03-21T19:05:45.447Z,14.17
2023-03-21T19:08:16.928Z,17.50
2023-03-21T19:10:49.638Z,16.43
2023-03-21T19:13:21.317Z,12.90
2023-03-21T19:15:54.079Z,17.10
2023-03-21T19:18:44.991Z,16.15
2023-03-21T19:21:17.125Z,16.00
2023-03-21T19:26:40.933Z,17.05
2023-03-21T19:29:13.179Z,17.95
2023-03-21T19:31:45.045Z,17.05
2023-03-21T19:34:17.077Z,17.15
2023-03-21T19:36:51.980Z,15.93
2023-03-21T19:39:23.975Z,15.60
2023-03-21T19:42:15.082Z,16.33
2023-03-21T19:44:47.267Z,17.50
2023-03-21T19:47:20.683Z,14.65
2023-03-21T19:52:44.118Z,13.70
2023-03-21T19:55:15.563Z,20.65
2023-03-21T19:57:48.672Z,16.93
2023-03-21T20:00:20.782Z,16.20
2023-03-21T20:02:52.335Z,13.63
2023-03-21T20:05:23.827Z,14.25
2023-03-21T20:07:57.196Z,14.35
2023-03-21T20:10:28.768Z,15.95
2023-03-21T20:13:00.247Z,13.38
2023-03-21T20:15:31.836Z,14.68
2023-03-21T20:18:03.415Z,13.48
2023-03-21T20:20:34.842Z,12.20
2023-03-21T20:23:08.410Z,11.17
2023-03-21T20:25:42.009Z,12.13
2023-03-21T20:28:20.388Z,14.75
2023-03-21T20:30:56.434Z,13.32
2023-03-21T20:33:29.103Z,15.07
2023-03-21T20:38:54.843Z,10.77
2023-03-21T20:41:26.275Z,10.55
2023-03-21T20:46:49.209Z,12.77
2023-03-21T20:49:20.795Z,11.23
2023-03-21T20:52:49.304Z,11.57
2023-03-21T20:54:43.969Z,11.38
2023-03-21T20:57:15.549Z,8.32
2023-03-21T20:59:47.529Z,11.88
2023-03-21T21:02:19.201Z,10.48
2023-03-21T21:05:21.524Z,9.85
2023-03-21T21:07:43.041Z,9.93
2023-03-21T21:10:16.845Z,11.30
2023-03-21T21:12:48.248Z,8.93
2023-03-21T21:15:19.743Z,9.93
2023-03-21T21:18:07.811Z,13.20
2023-03-21T21:20:39.923Z,10.97
2023-03-21T21:23:13.541Z,12.30
2023-03-21T21:25:45.189Z,12.23
2023-03-21T21:28:16.591Z,10.52
2023-03-21T21:30:48.098Z,11.82
2023-03-21T21:33:19.538Z,11.85
2023-03-21T21:35:51.103Z,13.32
2023-03-21T21:38:23.064Z,11.55
2023-03-21T21:40:58.972Z,10.77
2023-03-21T21:43:30.852Z,11.65
2023-03-21T21:46:02.375Z,10.88
2023-03-21T21:48:33.932Z,12.10
2023-03-21T21:51:05.600Z,15.05
2023-03-21T21:53:37.086Z,13.77
2023-03-21T21:56:09.085Z,14.00
2023-03-21T21:58:40.503Z,15.50
2023-03-21T22:01:12.034Z,13.25
2023-03-21T22:03:43.514Z,14.48
2023-03-21T22:06:14.956Z,12.60
2023-03-21T22:08:46.445Z,15.82
2023-03-21T22:11:18.600Z,11.15
2023-03-21T22:13:50.230Z,13.10
2023-03-21T22:16:22.235Z,11.63
2023-03-21T22:18:53.713Z,11.48
2023-03-21T22:21:25.082Z,13.55
2023-03-21T22:23:56.597Z,12.07
2023-03-21T22:26:28.141Z,11.00
2023-03-21T22:29:00.987Z,10.55
2023-03-21T22:31:32.513Z,14.73
2023-03-21T22:34:04.399Z,12.82
2023-03-21T22:36:35.880Z,12.40
2023-03-21T22:39:07.344Z,12.35
2023-03-21T22:41:38.843Z,10.25
2023-03-21T22:44:10.329Z,12.80
2023-03-21T22:46:41.793Z,13.23
2023-03-21T22:49:13.209Z,15.70
2023-03-21T22:51:44.624Z,14.60
2023-03-21T22:54:16.070Z,13.45
2023-03-21T22:56:47.691Z,11.98
2023-03-21T22:59:19.150Z,15.52
2023-03-21T23:01:50.776Z,13.50
2023-03-21T23:04:23.260Z,10.77
2023-03-21T23:06:54.787Z,14.85
2023-03-21T23:09:26.280Z,13.70
2023-03-21T23:11:57.777Z,10.18
2023-03-21T23:14:29.266Z,13.83
2023-03-21T23:17:00.744Z,13.95
2023-03-21T23:19:32.252Z,13.23
2023-03-21T23:22:03.676Z,10.60
2023-03-21T23:24:35.103Z,16.95
2023-03-21T23:27:06.567Z,12.65
2023-03-21T23:29:38.027Z,12.48
2023-03-21T23:32:09.575Z,12.27
2023-03-21T23:34:41.026Z,12.38
2023-03-21T23:37:12.563Z,13.65
2023-03-21T23:39:44.020Z,11.45
2023-03-21T23:42:15.447Z,11.48
2023-03-21T23:44:47.143Z,12.25
2023-03-21T23:47:18.619Z,12.40
2023-03-21T23:49:50.164Z,13.27
2023-03-21T23:52:22.098Z,11.43
2023-03-21T23:54:53.531Z,13.52
2023-03-21T23:57:25.004Z,11.68
2023-03-21T23:59:56.596Z,15.03
